Time;durP1;ratioP1;P1;durP2;ratioP2;P2;SDS_P1;SDS_P2;PMS_P1;PMS_P2;Temp;Humidity;BMP_temperature;BMP_pressure;BME280_temperature;BME280_humidity;BME280_pressure;Samples;Min_cycle;Max_cycle;Signal;HPM_P1;HPM_P2
2022/10/09 00:00:23;;;;;;;5.72;1.55;;;;;;;11.45;94.19;101654.59;5023159;28;20033;-65
2022/10/09 00:02:48;;;;;;;2.88;1.05;;;;;;;11.49;94.06;101655.50;5004015;28;20026;-65
2022/10/09 00:05:14;;;;;;;3.10;1.55;;;;;;;11.55;93.63;101657.66;5020036;28;20037;-65
2022/10/09 00:07:39;;;;;;;3.92;1.13;;;;;;;11.49;93.85;101650.13;5019386;28;20428;-65
2022/10/09 00:10:05;;;;;;;3.70;1.10;;;;;;;11.44;93.32;101664.59;5013499;28;20025;-64
2022/10/09 00:12:30;;;;;;;2.85;1.00;;;;;;;11.41;93.26;101659.88;5023012;28;20048;-65
2022/10/09 00:14:56;;;;;;;1.75;0.95;;;;;;;11.38;93.47;101659.78;5012965;28;20382;-67
2022/10/09 00:17:21;;;;;;;3.08;0.80;;;;;;;11.34;93.06;101662.34;5030906;28;20612;-67
2022/10/09 00:19:47;;;;;;;2.53;1.50;;;;;;;11.32;93.89;101670.00;5021061;28;20041;-67
2022/10/09 00:22:12;;;;;;;2.03;1.15;;;;;;;11.31;93.54;101670.31;5046338;28;20055;-67
2022/10/09 00:24:37;;;;;;;3.35;1.23;;;;;;;11.33;93.01;101668.88;5019848;28;20062;-67
2022/10/09 00:27:03;;;;;;;1.00;0.80;;;;;;;11.32;93.02;101672.69;5016789;28;20053;-67
2022/10/09 00:29:28;;;;;;;1.17;0.88;;;;;;;11.37;93.60;101674.38;5025409;28;20108;-67
2022/10/09 00:31:54;;;;;;;3.85;1.25;;;;;;;11.35;92.81;101680.09;5018011;28;20064;-67
2022/10/09 00:34:19;;;;;;;1.58;1.00;;;;;;;11.30;92.91;101685.72;5028502;28;20028;-67
2022/10/09 00:36:45;;;;;;;1.13;0.90;;;;;;;11.26;92.88;101682.13;5017527;28;20507;-67
2022/10/09 00:39:10;;;;;;;2.00;1.23;;;;;;;11.20;93.71;101685.34;5027345;28;20029;-67
2022/10/09 00:41:35;;;;;;;1.77;1.10;;;;;;;11.26;93.69;101684.81;5029688;28;20068;-64
2022/10/09 00:44:22;;;;;;;2.20;0.98;;;;;;;11.27;93.81;101685.56;5018737;28;20033;-64
2022/10/09 00:46:50;;;;;;;1.33;0.77;;;;;;;11.24;93.49;101684.34;5023828;28;20037;-64
2022/10/09 00:49:31;;;;;;;1.98;1.17;;;;;;;11.21;92.94;101703.09;5019659;28;20029;-64
2022/10/09 00:52:00;;;;;;;1.88;1.15;;;;;;;11.11;93.36;101690.81;5022614;28;20124;-64
2022/10/09 00:54:30;;;;;;;1.08;0.90;;;;;;;11.12;93.60;101683.53;5016444;28;20674;-65
2022/10/09 00:56:55;;;;;;;1.65;0.90;;;;;;;11.16;93.77;101689.81;5025014;28;20094;-65
2022/10/09 00:59:21;;;;;;;1.20;1.02;;;;;;;11.07;93.50;101700.69;5015416;28;20064;-65
2022/10/09 01:01:47;;;;;;;1.23;0.93;;;;;;;11.20;92.75;101707.72;5018272;28;20466;-64
2022/10/09 01:04:13;;;;;;;2.42;1.00;;;;;;;11.18;92.84;101706.47;5024578;28;20042;-64
2022/10/09 01:06:45;;;;;;;0.80;0.80;;;;;;;11.06;92.99;101706.41;5013027;28;20021;-64
2022/10/09 01:09:21;;;;;;;0.77;0.77;;;;;;;11.05;93.07;101712.94;5011596;28;20394;-65
2022/10/09 01:11:47;;;;;;;2.03;1.10;;;;;;;11.00;92.97;101708.53;5023226;28;20044;-64
2022/10/09 01:14:15;;;;;;;2.22;1.27;;;;;;;10.95;92.47;101702.56;5023166;28;20025;-64
2022/10/09 01:16:48;;;;;;;1.10;0.90;;;;;;;11.02;93.37;101706.28;5023981;28;20061;-65
2022/10/09 01:19:35;;;;;;;1.10;0.85;;;;;;;11.04;93.07;101711.34;5028409;28;20113;-64
2022/10/09 01:22:26;;;;;;;0.95;0.90;;;;;;;11.07;94.10;101705.31;5013569;28;20041;-64
2022/10/09 01:24:52;;;;;;;;;;;;;;;11.08;93.71;101714.94;5023179;28;20913;-64
2022/10/09 01:27:29;;;;;;;1.13;1.00;;;;;;;10.99;93.11;101711.56;5030909;28;20013;-63
2022/10/09 01:29:59;;;;;;;1.73;1.00;;;;;;;11.01;93.49;101706.63;5028976;28;20033;-65
2022/10/09 01:32:31;;;;;;;0.85;0.82;;;;;;;10.99;93.65;101708.88;5029794;28;20116;-64
2022/10/09 01:34:57;;;;;;;3.60;1.35;;;;;;;10.98;94.03;101704.56;5033198;28;20099;-63
2022/10/09 01:37:23;;;;;;;6.97;2.60;;;;;;;10.96;94.66;101706.81;5029664;28;20060;-64
2022/10/09 01:39:50;;;;;;;2.03;1.00;;;;;;;11.07;93.87;101705.31;5030556;28;20456;-65
2022/10/09 01:42:19;;;;;;;1.42;1.23;;;;;;;11.10;93.82;101699.22;5030181;28;20083;-64
2022/10/09 01:44:44;;;;;;;3.47;1.23;;;;;;;11.11;93.83;101706.97;5026873;28;20760;-64
2022/10/09 01:50:04;;;;;;;3.13;1.35;;;;;;;11.04;94.56;101697.88;4956835;28;20046;-68
2022/10/09 01:52:57;;;;;;;4.85;1.23;;;;;;;11.06;94.58;101695.63;4966794;28;20030;-68
2022/10/09 01:55:34;;;;;;;2.08;0.85;;;;;;;11.06;94.66;101695.63;4986572;28;20047;-68
2022/10/09 01:58:03;;;;;;;1.40;1.02;;;;;;;11.06;94.73;101690.25;4974630;28;20049;-69
2022/10/09 02:00:36;;;;;;;5.50;0.98;;;;;;;11.10;94.38;101704.63;4969812;28;20046;-69
2022/10/09 02:03:05;;;;;;;4.70;1.48;;;;;;;11.07;94.75;101699.91;4972646;28;20039;-68
2022/10/09 02:05:31;;;;;;;7.25;1.17;;;;;;;11.05;94.85;101700.25;4974717;28;20034;-68
2022/10/09 02:07:57;;;;;;;0.98;0.88;;;;;;;11.04;94.87;101693.28;4973185;28;20031;-68
2022/10/09 02:10:24;;;;;;;2.72;1.40;;;;;;;11.06;94.04;101701.00;4965761;28;20049;-68
2022/10/09 02:12:56;;;;;;;4.85;0.90;;;;;;;11.01;94.33;101712.81;4975010;28;20114;-68
2022/10/09 02:15:26;;;;;;;1.67;0.75;;;;;;;11.10;94.07;101707.31;4968792;28;20122;-68
2022/10/09 02:17:56;;;;;;;1.95;0.90;;;;;;;10.95;93.79;101706.03;4988665;28;20057;-68
2022/10/09 02:20:29;;;;;;;2.42;0.77;;;;;;;10.98;94.54;101710.75;4973810;28;20839;-68
2022/10/09 02:22:57;;;;;;;3.97;0.82;;;;;;;11.10;94.43;101712.72;4970606;28;20046;-68
2022/10/09 02:25:23;;;;;;;2.95;1.15;;;;;;;11.12;94.31;101713.16;4957057;28;20065;-68
2022/10/09 02:27:48;;;;;;;2.15;1.05;;;;;;;11.20;94.75;101718.50;4974238;28;20406;-68
2022/10/09 02:30:15;;;;;;;1.67;1.17;;;;;;;11.16;95.05;101716.78;4973226;28;20118;-68
2022/10/09 02:32:40;;;;;;;1.27;0.80;;;;;;;11.26;95.15;101716.38;4970577;28;20511;-68
2022/10/09 02:35:07;;;;;;;2.20;0.85;;;;;;;11.33;95.64;101719.31;4968489;28;20035;-68
2022/10/09 02:37:32;;;;;;;3.92;0.98;;;;;;;11.34;95.49;101718.19;4989054;28;20035;-68
2022/10/09 02:39:58;;;;;;;1.50;0.90;;;;;;;11.34;96.42;101724.34;4973261;28;20043;-68
2022/10/09 02:42:24;;;;;;;1.08;0.80;;;;;;;11.30;96.64;101725.38;4974602;28;20058;-68
2022/10/09 02:44:51;;;;;;;2.50;1.08;;;;;;;11.31;97.31;101722.34;4973521;28;20470;-68
2022/10/09 02:47:17;;;;;;;3.95;1.58;;;;;;;11.39;97.41;101720.66;4967880;28;20388;-68
2022/10/09 02:49:42;;;;;;;2.13;1.20;;;;;;;11.40;97.83;101725.72;4971577;28;20035;-68
2022/10/09 02:52:08;;;;;;;2.85;1.23;;;;;;;11.42;97.29;101730.81;4969649;28;20082;-68
2022/10/09 02:54:33;;;;;;;4.32;1.52;;;;;;;11.37;98.02;101726.41;4974380;28;20066;-68
2022/10/09 02:56:59;;;;;;;2.38;1.60;;;;;;;11.43;98.10;101724.28;4974080;28;20037;-68
2022/10/09 02:59:24;;;;;;;2.17;1.45;;;;;;;11.40;98.37;101728.41;4951866;28;20078;-69
2022/10/09 03:01:50;;;;;;;2.92;1.42;;;;;;;11.53;97.67;101727.34;4965438;28;20542;-68
2022/10/09 03:04:15;;;;;;;4.20;1.10;;;;;;;11.51;97.28;101734.19;4973391;28;20534;-68
2022/10/09 03:06:40;;;;;;;4.68;1.50;;;;;;;11.52;97.17;101730.34;4973868;28;20096;-68
2022/10/09 03:09:06;;;;;;;2.15;1.10;;;;;;;11.39;96.60;101734.16;4969539;28;20046;-68
2022/10/09 03:11:31;;;;;;;5.32;1.27;;;;;;;11.47;97.12;101731.38;4972814;28;20277;-68
2022/10/09 03:13:57;;;;;;;1.88;1.00;;;;;;;11.47;97.31;101735.97;4973654;28;20063;-68
2022/10/09 03:16:24;;;;;;;1.70;1.00;;;;;;;11.51;97.11;101740.38;4971521;28;20488;-69
2022/10/09 03:18:50;;;;;;;2.10;1.10;;;;;;;11.51;97.36;101728.78;4959466;28;20035;-68
2022/10/09 03:21:19;;;;;;;2.33;1.40;;;;;;;11.54;96.90;101738.91;4972456;28;20043;-68
2022/10/09 03:23:45;;;;;;;3.70;1.15;;;;;;;11.47;97.24;101739.47;4963594;28;20027;-68
2022/10/09 03:26:13;;;;;;;5.57;1.35;;;;;;;11.49;97.93;101733.75;4984608;28;20557;-68
2022/10/09 03:28:41;;;;;;;8.30;1.73;;;;;;;11.53;96.68;101742.75;4972135;28;20084;-68
2022/10/09 03:31:07;;;;;;;2.47;1.50;;;;;;;11.37;97.85;101739.88;4966565;28;20109;-68
2022/10/09 03:33:36;;;;;;;1.30;1.10;;;;;;;11.42;97.64;101741.59;4987654;28;20396;-68
2022/10/09 03:36:02;;;;;;;1.95;1.38;;;;;;;11.41;97.43;101750.78;4973844;28;20046;-67
2022/10/09 03:38:28;;;;;;;1.52;1.30;;;;;;;11.46;97.41;101755.97;4976428;28;20042;-67
2022/10/09 03:40:53;;;;;;;5.28;1.85;;;;;;;11.44;96.40;101760.94;4971193;28;20133;-67
2022/10/09 03:43:19;;;;;;;2.85;1.17;;;;;;;11.34;96.68;101754.03;4971761;28;20506;-67
2022/10/09 03:45:44;;;;;;;2.17;1.02;;;;;;;11.30;96.22;101755.03;4971093;28;20121;-67
2022/10/09 03:48:12;;;;;;;2.00;1.52;;;;;;;11.21;96.38;101757.81;4963218;28;20531;-67
2022/10/09 03:50:38;;;;;;;2.75;1.10;;;;;;;11.13;96.21;101755.97;4972048;28;20022;-67
2022/10/09 03:53:05;;;;;;;2.05;1.42;;;;;;;11.03;96.12;101755.59;4970562;28;20038;-67
2022/10/09 03:55:30;;;;;;;1.90;0.95;;;;;;;11.04;96.30;101768.75;4969962;28;20031;-67
2022/10/09 03:57:55;;;;;;;3.08;1.20;;;;;;;11.11;95.66;101768.22;4971068;28;20047;-67
2022/10/09 04:00:21;;;;;;;3.75;1.55;;;;;;;11.11;95.86;101768.22;4972047;28;20039;-67
2022/10/09 04:02:46;;;;;;;3.17;1.45;;;;;;;11.05;95.47;101767.63;4962925;28;20035;-67
2022/10/09 04:05:12;;;;;;;1.30;0.95;;;;;;;10.99;95.90;101773.53;4963299;28;20070;-67
2022/10/09 04:07:37;;;;;;;2.13;1.63;;;;;;;11.06;95.88;101769.19;4972011;28;20042;-67
2022/10/09 04:10:03;;;;;;;1.83;1.27;;;;;;;11.06;95.97;101766.50;4971689;28;20019;-67
2022/10/09 04:12:29;;;;;;;3.08;1.48;;;;;;;10.95;95.28;101773.41;4977029;28;20109;-67
2022/10/09 04:14:57;;;;;;;2.92;1.15;;;;;;;11.01;95.12;101766.72;4972469;28;20030;-67
2022/10/09 04:17:22;;;;;;;4.78;1.50;;;;;;;10.91;95.82;101769.81;4971180;28;20034;-67
2022/10/09 04:19:48;;;;;;;5.60;1.85;;;;;;;10.95;95.33;101769.94;4969506;28;20535;-67
2022/10/09 04:22:13;;;;;;;1.13;1.00;;;;;;;10.84;95.84;101772.22;4963503;28;20039;-67
2022/10/09 04:24:39;;;;;;;4.45;1.35;;;;;;;10.81;96.08;101771.00;4986811;28;20057;-67
2022/10/09 04:27:04;;;;;;;1.80;1.17;;;;;;;10.89;96.32;101769.34;4976180;28;20034;-67
2022/10/09 04:29:29;;;;;;;1.85;1.40;;;;;;;10.87;96.20;101777.75;4970768;28;20030;-67
2022/10/09 04:31:55;;;;;;;2.50;1.17;;;;;;;10.79;96.55;101769.72;4972561;28;20027;-67
2022/10/09 04:34:20;;;;;;;3.33;2.10;;;;;;;10.72;95.80;101766.78;4970856;28;20035;-67
2022/10/09 04:36:46;;;;;;;1.52;1.10;;;;;;;10.65;95.53;101767.28;4963845;28;20046;-67
2022/10/09 04:39:11;;;;;;;1.02;0.95;;;;;;;10.69;96.00;101762.81;4970925;28;20027;-67
2022/10/09 04:41:37;;;;;;;1.48;0.98;;;;;;;10.68;95.41;101771.25;4971869;28;20045;-67
2022/10/09 04:44:02;;;;;;;3.75;1.17;;;;;;;10.67;95.32;101770.44;4966195;28;20039;-67
2022/10/09 04:46:28;;;;;;;1.52;1.15;;;;;;;10.56;95.44;101763.88;4965533;28;20106;-67
2022/10/09 04:48:53;;;;;;;1.38;1.27;;;;;;;10.46;94.87;101774.22;4964744;28;20053;-67
2022/10/09 04:51:19;;;;;;;2.95;1.30;;;;;;;10.42;95.55;101774.09;4971562;28;20030;-67
2022/10/09 04:53:45;;;;;;;2.92;1.20;;;;;;;10.38;95.08;101767.78;4972007;28;20023;-67
2022/10/09 04:56:14;;;;;;;2.88;1.20;;;;;;;10.42;94.56;101768.72;4968224;28;20035;-67
2022/10/09 04:58:40;;;;;;;2.38;1.20;;;;;;;10.34;93.90;101760.66;4987768;28;20503;-67
2022/10/09 05:01:08;;;;;;;6.28;1.30;;;;;;;10.32;94.50;101755.63;4967078;28;20031;-67
2022/10/09 05:03:35;;;;;;;1.67;0.88;;;;;;;10.34;94.16;101768.75;4970831;28;20043;-67
2022/10/09 05:06:05;;;;;;;7.65;1.25;;;;;;;10.40;94.97;101759.38;4971863;28;20372;-67
2022/10/09 05:08:31;;;;;;;2.90;1.52;;;;;;;10.35;94.72;101767.66;4970576;28;20042;-67
2022/10/09 05:11:07;;;;;;;2.97;1.25;;;;;;;10.40;94.89;101770.13;4960583;28;20031;-67
2022/10/09 05:13:36;;;;;;;2.45;1.13;;;;;;;10.25;94.67;101768.81;4971580;28;20077;-67
2022/10/09 05:16:03;;;;;;;2.33;1.17;;;;;;;10.20;94.62;101770.91;4962170;28;20420;-67
2022/10/09 05:18:29;;;;;;;1.77;1.35;;;;;;;10.18;94.38;101776.56;4969431;28;20483;-67
2022/10/09 05:20:55;;;;;;;2.03;1.33;;;;;;;10.17;94.86;101776.91;4970957;28;20038;-67
2022/10/09 05:23:20;;;;;;;2.08;1.10;;;;;;;10.14;94.18;101775.69;4971606;28;20073;-67
2022/10/09 05:25:57;;;;;;;1.27;1.00;;;;;;;10.15;94.21;101774.53;4959308;28;20282;-67
2022/10/09 05:28:22;;;;;;;2.45;1.13;;;;;;;10.07;94.37;101775.34;4964291;28;20065;-67
2022/10/09 05:30:48;;;;;;;1.58;1.17;;;;;;;10.14;94.71;101778.38;4969651;28;20058;-67
2022/10/09 05:33:13;;;;;;;1.02;0.95;;;;;;;10.14;93.88;101783.75;4968262;28;20514;-67
2022/10/09 05:35:39;;;;;;;1.80;1.40;;;;;;;10.07;94.10;101783.41;4964521;28;20070;-67
2022/10/09 05:38:04;;;;;;;1.80;1.15;;;;;;;9.99;94.15;101779.66;4991190;28;20045;-67
2022/10/09 05:40:30;;;;;;;2.13;1.20;;;;;;;9.99;94.27;101784.22;4970743;28;20038;-67
2022/10/09 05:42:55;;;;;;;2.25;1.55;;;;;;;10.15;94.04;101782.63;4979112;28;20031;-68
2022/10/09 05:45:21;;;;;;;2.47;1.35;;;;;;;10.17;93.63;101783.09;4968142;28;20026;-67
2022/10/09 05:47:47;;;;;;;3.10;1.35;;;;;;;10.20;94.14;101779.75;4985859;28;20042;-67
2022/10/09 05:50:12;;;;;;;1.38;1.23;;;;;;;10.25;93.97;101778.78;4970905;28;20043;-67
2022/10/09 05:52:38;;;;;;;1.45;1.02;;;;;;;10.26;94.82;101783.81;4964304;28;20023;-67
2022/10/09 05:55:04;;;;;;;5.18;1.15;;;;;;;10.41;94.79;101785.19;4968716;28;20039;-67
2022/10/09 05:57:30;;;;;;;1.20;0.93;;;;;;;10.44;94.35;101782.63;4948802;28;20031;-68
2022/10/09 05:59:55;;;;;;;5.40;1.50;;;;;;;10.28;96.27;101791.59;4958822;28;20455;-67
2022/10/09 06:02:21;;;;;;;1.33;1.20;;;;;;;10.38;95.64;101786.63;4952708;28;20035;-67
2022/10/09 06:04:46;;;;;;;5.97;1.55;;;;;;;10.47;96.04;101791.97;4968777;28;20030;-67
2022/10/09 06:07:11;;;;;;;1.50;0.93;;;;;;;10.53;95.68;101794.13;4966739;28;20026;-67
2022/10/09 06:09:37;;;;;;;2.25;1.35;;;;;;;10.57;95.72;101797.75;4970273;28;20042;-68
2022/10/09 06:12:02;;;;;;;1.67;1.20;;;;;;;10.65;95.42;101793.44;4973934;28;20038;-67
2022/10/09 06:14:28;;;;;;;1.80;1.20;;;;;;;10.57;95.67;101802.34;4972071;28;20505;-67
2022/10/09 06:16:53;;;;;;;2.97;1.63;;;;;;;10.61;95.40;101800.59;4986577;28;20034;-67
2022/10/09 06:19:19;;;;;;;3.05;1.40;;;;;;;10.58;95.26;101801.25;4973623;28;20035;-67
2022/10/09 06:21:45;;;;;;;2.70;1.40;;;;;;;10.62;95.61;101794.09;4968683;28;20427;-67
2022/10/09 06:24:22;;;;;;;2.00;1.20;;;;;;;10.62;96.00;101802.19;4973023;28;20394;-67
2022/10/09 06:26:48;;;;;;;3.60;1.40;;;;;;;10.65;95.60;101812.28;4974619;28;20485;-67
2022/10/09 06:29:14;;;;;;;6.95;1.50;;;;;;;10.62;96.62;101800.28;4975398;28;20034;-68
2022/10/09 06:31:39;;;;;;;4.07;1.92;;;;;;;10.65;96.63;101809.59;4966956;28;20039;-67
2022/10/09 06:34:04;;;;;;;3.88;1.77;;;;;;;10.64;96.88;101808.81;4973295;28;20036;-67
2022/10/09 06:36:32;;;;;;;4.47;1.95;;;;;;;10.68;97.30;101804.34;4965430;28;20031;-67
2022/10/09 06:38:59;;;;;;;5.68;2.55;;;;;;;10.66;97.42;101820.06;4970719;28;20483;-69
2022/10/09 06:41:27;;;;;;;2.20;1.50;;;;;;;10.71;97.70;101808.28;4969662;28;20070;-67
2022/10/09 06:43:55;;;;;;;5.68;2.28;;;;;;;10.69;97.70;101810.53;4973849;28;20074;-67
2022/10/09 06:46:23;;;;;;;4.93;1.83;;;;;;;10.64;97.71;101816.13;4956547;28;20027;-67
2022/10/09 06:48:48;;;;;;;2.60;1.67;;;;;;;10.76;97.85;101814.28;4964378;28;20089;-67
2022/10/09 06:51:16;;;;;;;7.57;2.00;;;;;;;10.83;97.59;101827.25;4987420;28;20043;-67
2022/10/09 06:53:51;;;;;;;3.78;1.98;;;;;;;10.87;98.33;101834.34;4973623;28;20444;-69
2022/10/09 06:56:18;;;;;;;3.38;1.70;;;;;;;10.94;98.13;101833.06;4973783;28;20062;-67
2022/10/09 06:58:44;;;;;;;2.42;1.60;;;;;;;10.89;98.63;101837.50;4975144;28;20043;-67
2022/10/09 07:01:11;;;;;;;2.25;1.58;;;;;;;10.84;99.76;101834.19;4985344;28;20571;-67
2022/10/09 07:03:39;;;;;;;2.10;1.38;;;;;;;10.88;99.58;101838.63;4967640;28;20046;-67
2022/10/09 07:06:10;;;;;;;3.80;1.60;;;;;;;10.95;100.00;101840.00;4973507;28;20634;-67
2022/10/09 07:08:38;;;;;;;4.60;1.52;;;;;;;10.92;100.00;101843.38;4965048;28;20035;-67
2022/10/09 07:11:09;;;;;;;3.15;1.95;;;;;;;10.99;100.00;101844.41;4972287;28;20050;-67
2022/10/09 07:13:34;;;;;;;2.38;1.30;;;;;;;11.11;100.00;101843.69;4988266;28;20038;-67
2022/10/09 07:16:00;;;;;;;8.52;2.22;;;;;;;11.02;100.00;101842.97;4969897;28;20089;-67
2022/10/09 07:18:25;;;;;;;4.63;1.42;;;;;;;11.27;100.00;101842.78;4969565;28;20030;-67
2022/10/09 07:20:50;;;;;;;4.63;1.40;;;;;;;11.52;100.00;101857.94;4967628;28;20162;-67
2022/10/09 07:23:16;;;;;;;2.45;1.52;;;;;;;11.65;100.00;101856.09;4986375;28;20442;-67
2022/10/09 07:25:41;;;;;;;3.47;1.60;;;;;;;11.81;100.00;101843.56;4986823;28;20034;-67
2022/10/09 07:28:07;;;;;;;5.22;1.55;;;;;;;12.03;99.94;101851.28;4968591;28;20523;-67
2022/10/09 07:30:36;;;;;;;7.00;1.55;;;;;;;12.22;99.97;101853.44;4959171;28;20066;-68
2022/10/09 07:33:02;;;;;;;4.32;1.60;;;;;;;12.38;98.86;101852.47;4958168;28;20159;-68
2022/10/09 07:35:27;;;;;;;3.38;1.80;;;;;;;12.58;99.57;101850.78;4957796;28;20122;-68
2022/10/09 07:37:53;;;;;;;4.60;1.38;;;;;;;12.58;97.02;101850.78;4953904;28;20039;-68
2022/10/09 07:40:18;;;;;;;2.33;1.23;;;;;;;12.75;97.80;101852.44;4986806;28;20512;-68
2022/10/09 07:42:44;;;;;;;4.22;2.22;;;;;;;12.99;96.16;101853.19;4967860;28;20042;-68
2022/10/09 07:45:09;;;;;;;4.05;1.27;;;;;;;13.22;95.80;101851.59;4972020;28;20603;-68
2022/10/09 07:50:19;;;;;;;2.30;1.60;;;;;;;13.54;94.51;101864.13;5000857;28;20089;-65
2022/10/09 07:52:44;;;;;;;2.03;1.30;;;;;;;13.91;94.08;101870.16;5004938;28;20045;-64
2022/10/09 07:55:10;;;;;;;5.03;1.60;;;;;;;14.16;92.80;101868.88;5010361;28;20116;-65
2022/10/09 07:57:35;;;;;;;4.45;1.48;;;;;;;14.28;90.49;101868.03;5005362;28;20109;-65
2022/10/09 08:00:00;;;;;;;3.47;1.20;;;;;;;14.17;90.35;101861.50;5005847;28;20049;-65
2022/10/09 08:02:26;;;;;;;3.53;1.42;;;;;;;14.36;89.93;101870.56;5006950;28;20042;-64
2022/10/09 08:04:51;;;;;;;1.85;1.00;;;;;;;14.46;88.70;101872.75;5007909;28;20033;-65
2022/10/09 08:07:17;;;;;;;1.83;1.65;;;;;;;14.42;88.10;101874.56;5006508;28;20561;-64
2022/10/09 08:09:42;;;;;;;1.63;1.13;;;;;;;14.59;88.32;101876.16;5004090;28;20038;-64
2022/10/09 08:12:08;;;;;;;2.88;1.10;;;;;;;14.80;87.61;101881.28;5008537;28;20462;-65
2022/10/09 08:14:33;;;;;;;2.85;1.50;;;;;;;14.55;87.20;101877.19;5000319;28;20104;-65
2022/10/09 08:16:59;;;;;;;2.28;1.45;;;;;;;14.59;86.81;101881.59;5008188;28;20101;-65
2022/10/09 08:19:24;;;;;;;3.53;1.17;;;;;;;14.29;88.28;101878.53;5003394;28;20486;-65
2022/10/09 08:21:50;;;;;;;3.03;1.38;;;;;;;14.53;88.13;101882.19;5012943;28;20121;-65
2022/10/09 08:24:15;;;;;;;1.67;1.27;;;;;;;14.62;87.18;101885.50;4997413;28;20516;-65
2022/10/09 08:26:42;;;;;;;6.40;1.23;;;;;;;14.63;88.19;101881.66;5007323;28;20028;-64
2022/10/09 08:29:09;;;;;;;2.42;1.30;;;;;;;14.87;88.23;101884.16;4997446;28;20042;-66
2022/10/09 08:31:35;;;;;;;4.40;1.25;;;;;;;15.03;87.68;101888.41;5005130;28;20434;-65
2022/10/09 08:34:02;;;;;;;3.53;1.60;;;;;;;14.96;85.24;101890.94;4997166;28;20080;-66
2022/10/09 08:36:28;;;;;;;2.25;1.30;;;;;;;14.81;86.39;101888.28;5019070;28;20149;-65
2022/10/09 08:38:54;;;;;;;1.05;0.90;;;;;;;14.92;87.66;101894.75;4995933;28;20097;-64
2022/10/09 08:41:31;;;;;;;2.03;1.30;;;;;;;15.09;87.19;101891.63;4995667;28;20052;-65
2022/10/09 08:44:03;;;;;;;1.90;1.30;;;;;;;15.32;87.04;101892.53;4996407;28;20053;-65
2022/10/09 08:46:33;;;;;;;2.28;1.20;;;;;;;15.57;86.15;101883.00;5008138;28;20477;-65
2022/10/09 08:49:02;;;;;;;5.77;1.43;;;;;;;15.70;84.77;101891.78;4995810;28;20867;-65
2022/10/09 08:51:34;;;;;;;3.03;1.13;;;;;;;15.96;83.75;101900.84;5005219;28;20757;-64
2022/10/09 08:54:14;;;;;;;1.67;0.88;;;;;;;15.93;81.50;101898.81;5003770;28;20044;-65
2022/10/09 08:56:40;;;;;;;1.35;0.70;;;;;;;16.07;80.96;101887.41;5003265;28;20160;-65
2022/10/09 08:59:10;;;;;;;1.48;0.77;;;;;;;16.15;82.09;101884.47;5005475;28;20394;-65
2022/10/09 09:01:56;;;;;;;2.28;0.85;;;;;;;16.46;81.86;101888.88;5005363;28;20471;-65
2022/10/09 09:04:37;;;;;;;1.67;1.35;;;;;;;16.70;81.32;101885.03;4993869;28;20367;-65
2022/10/09 09:07:05;;;;;;;2.08;0.88;;;;;;;16.85;78.34;101889.50;5007705;28;20026;-65
2022/10/09 09:09:49;;;;;;;1.63;0.70;;;;;;;16.91;77.94;101890.78;5002393;28;20026;-65
2022/10/09 09:12:26;;;;;;;1.23;0.73;;;;;;;17.06;77.91;101892.53;4999580;28;20029;-65
2022/10/09 09:15:01;;;;;;;1.42;0.85;;;;;;;16.91;76.88;101896.22;5006932;28;20038;-65
2022/10/09 09:17:33;;;;;;;0.88;0.85;;;;;;;16.99;77.24;101887.78;5000993;28;20052;-65
2022/10/09 09:20:22;;;;;;;0.93;0.57;;;;;;;16.98;77.46;101890.88;5004446;28;20037;-66
2022/10/09 09:22:48;;;;;;;0.82;0.50;;;;;;;17.23;77.97;101891.22;5001100;28;20414;-66
2022/10/09 09:25:18;;;;;;;2.75;0.60;;;;;;;17.21;76.48;101890.81;5001717;28;20104;-65
2022/10/09 09:27:44;;;;;;;2.53;1.15;;;;;;;16.78;77.29;101894.88;4996701;28;20050;-65
2022/10/09 09:30:34;;;;;;;3.50;0.70;;;;;;;16.68;78.09;101893.56;4998625;28;20110;-65
2022/10/09 09:33:21;;;;;;;1.67;0.70;;;;;;;16.55;80.10;101885.94;5002127;28;20034;-65
2022/10/09 09:36:05;;;;;;;2.95;0.70;;;;;;;16.68;79.11;101892.75;5008137;28;20041;-65
2022/10/09 09:38:31;;;;;;;2.60;0.90;;;;;;;16.59;77.42;101890.28;5002661;28;20037;-65
2022/10/09 09:40:56;;;;;;;2.00;0.82;;;;;;;16.66;77.35;101890.41;5000716;28;20145;-66
2022/10/09 09:43:24;;;;;;;1.40;0.85;;;;;;;16.85;78.93;101884.06;5001368;28;20033;-64
2022/10/09 09:45:55;;;;;;;2.55;0.80;;;;;;;17.02;78.42;101886.25;5011885;28;20486;-66
2022/10/09 09:48:31;;;;;;;4.53;0.82;;;;;;;17.20;78.29;101884.56;4996081;28;20112;-67
2022/10/09 09:50:57;;;;;;;5.53;1.00;;;;;;;17.35;77.59;101891.75;5011397;28;20031;-66
2022/10/09 09:53:29;;;;;;;1.42;0.60;;;;;;;17.49;77.50;101888.47;5006154;28;20028;-66
2022/10/09 09:55:54;;;;;;;;;;;;;;;17.44;76.96;101889.53;5006183;28;20490;-66
2022/10/09 09:58:21;;;;;;;2.60;0.82;;;;;;;17.42;77.03;101880.94;5010520;28;19949;-66
2022/10/09 10:01:01;;;;;;;0.90;0.57;;;;;;;17.54;77.11;101885.41;5006672;28;20038;-66
2022/10/09 10:03:28;;;;;;;3.30;0.60;;;;;;;17.33;75.57;101880.44;5006578;28;20457;-66
2022/10/09 10:05:53;;;;;;;1.23;1.13;;;;;;;17.25;75.91;101878.03;5007693;28;20410;-66
2022/10/09 10:08:26;;;;;;;1.02;0.85;;;;;;;17.10;76.12;101869.66;5000503;28;20030;-66
2022/10/09 10:10:55;;;;;;;2.63;0.55;;;;;;;17.13;75.95;101879.81;5008814;28;20054;-66
2022/10/09 10:13:34;;;;;;;2.78;0.60;;;;;;;17.05;76.62;101871.94;5009087;28;20036;-66
2022/10/09 10:16:00;;;;;;;2.00;0.68;;;;;;;17.10;77.55;101866.16;5002831;28;20459;-66
2022/10/09 10:18:31;;;;;;;3.10;0.80;;;;;;;17.17;77.81;101879.09;5012632;28;20105;-66
2022/10/09 10:21:10;;;;;;;3.43;0.87;;;;;;;17.39;76.67;101887.16;5008092;28;20030;-65
2022/10/09 10:23:54;;;;;;;0.47;0.32;;;;;;;17.43;74.54;101879.81;4998030;28;20042;-66
2022/10/09 10:26:35;;;;;;;2.08;0.70;;;;;;;17.61;74.88;101880.06;5009930;28;20030;-66
2022/10/09 10:29:22;;;;;;;1.77;0.65;;;;;;;17.67;73.95;101878.56;5010129;28;20444;-65
2022/10/09 10:32:13;;;;;;;2.50;1.05;;;;;;;17.66;74.46;101877.78;4990124;28;20109;-65
2022/10/09 10:34:45;;;;;;;1.83;0.57;;;;;;;17.75;73.47;101872.03;4992463;28;20176;-66
2022/10/09 10:37:14;;;;;;;2.33;0.60;;;;;;;17.87;74.47;101874.47;4994790;28;20078;-66
2022/10/09 10:39:56;;;;;;;1.83;0.60;;;;;;;17.97;74.17;101879.25;4997061;28;20028;-66
2022/10/09 10:42:28;;;;;;;2.38;0.98;;;;;;;17.86;71.85;101873.72;5001561;28;20038;-65
2022/10/09 10:45:13;;;;;;;1.00;0.52;;;;;;;17.64;72.60;101873.84;5003025;28;20045;-66
2022/10/09 10:47:44;;;;;;;0.68;0.40;;;;;;;17.80;72.62;101867.03;4998613;28;20089;-65
2022/10/09 10:50:14;;;;;;;0.60;0.47;;;;;;;17.91;73.26;101873.38;5008869;28;20022;-67
2022/10/09 10:53:13;;;;;;;0.68;0.30;;;;;;;18.07;72.53;101864.16;5001577;28;20033;-66
2022/10/09 10:56:03;;;;;;;0.60;0.40;;;;;;;17.76;72.16;101849.84;4991370;28;20033;-66
2022/10/09 10:58:38;;;;;;;4.63;0.60;;;;;;;18.03;72.52;101855.97;5007935;28;20034;-68
2022/10/09 11:01:43;;;;;;;1.92;0.40;;;;;;;17.69;72.64;101849.75;4993150;28;20041;-66
2022/10/09 11:04:23;;;;;;;5.35;0.95;;;;;;;17.87;72.94;101844.50;4996015;28;20441;-66
2022/10/09 11:07:07;;;;;;;0.80;0.35;;;;;;;18.14;73.01;101839.72;5004940;28;20696;-66
2022/10/09 11:09:42;;;;;;;1.73;0.60;;;;;;;18.31;71.83;101841.78;5010416;28;20028;-65
2022/10/09 11:12:38;;;;;;;2.90;0.60;;;;;;;18.25;69.09;101849.53;5006025;28;20026;-66
2022/10/09 11:15:12;;;;;;;0.98;0.50;;;;;;;18.27;69.68;101839.03;5011319;28;20509;-67
2022/10/09 11:17:44;;;;;;;1.58;0.57;;;;;;;18.42;70.90;101835.28;5003375;28;20507;-65
2022/10/09 11:20:39;;;;;;;1.33;0.90;;;;;;;18.57;71.49;101838.88;5003073;28;20534;-67
2022/10/09 11:23:33;;;;;;;0.60;0.50;;;;;;;18.55;67.89;101833.81;5007406;28;20080;-66
2022/10/09 11:26:28;;;;;;;1.30;0.40;;;;;;;18.65;68.75;101818.66;4997432;28;20108;-66
2022/10/09 11:29:03;;;;;;;2.67;0.60;;;;;;;18.53;66.63;101825.22;5011159;28;20083;-66
2022/10/09 11:31:35;;;;;;;2.55;0.35;;;;;;;18.35;67.41;101831.69;5006942;28;20030;-66
2022/10/09 11:34:29;;;;;;;0.32;0.30;;;;;;;18.62;67.57;101825.66;5013065;28;20038;-66
2022/10/09 11:36:55;;;;;;;0.70;0.28;;;;;;;18.65;67.04;101819.47;5008425;28;20045;-66
2022/10/09 11:39:24;;;;;;;2.22;0.40;;;;;;;18.64;66.69;101817.88;5007809;28;20033;-65